createdAt,value
2022-10-14T00:01:24.994Z,15.40
2022-10-14T00:03:57.895Z,15.40
2022-10-14T00:06:27.846Z,15.40
2022-10-14T00:08:57.202Z,15.30
2022-10-14T00:11:27.443Z,15.40
2022-10-14T00:13:56.966Z,15.40
2022-10-14T00:16:27.578Z,15.40
2022-10-14T00:18:58.012Z,15.40
2022-10-14T00:21:28.151Z,15.40
2022-10-14T00:23:57.368Z,15.40
2022-10-14T00:26:30.915Z,15.40
2022-10-14T00:29:00.465Z,15.40
2022-10-14T00:31:33.139Z,15.30
2022-10-14T00:34:03.150Z,15.30
2022-10-14T00:36:31.472Z,15.30
2022-10-14T00:38:59.729Z,15.30
2022-10-14T00:41:30.059Z,15.30
2022-10-14T00:44:01.635Z,15.30
2022-10-14T00:46:32.706Z,15.30
2022-10-14T00:49:09.962Z,15.30
2022-10-14T00:51:39.801Z,15.30
2022-10-14T00:54:08.764Z,15.30
2022-10-14T00:56:37.946Z,15.30
2022-10-14T00:59:12.670Z,15.30
2022-10-14T01:01:41.127Z,15.30
2022-10-14T01:04:10.751Z,15.30
2022-10-14T01:06:48.960Z,15.30
2022-10-14T01:09:25.657Z,15.30
2022-10-14T01:12:27.626Z,15.30
2022-10-14T01:14:59.923Z,15.30
2022-10-14T01:17:40.380Z,15.10
2022-10-14T01:20:42.190Z,15.30
2022-10-14T01:23:42.196Z,15.30
2022-10-14T01:26:24.533Z,15.30
2022-10-14T01:29:06.428Z,15.30
2022-10-14T01:31:36.697Z,15.30
2022-10-14T01:34:11.698Z,15.30
2022-10-14T01:36:45.328Z,15.30
2022-10-14T01:39:19.519Z,15.30
2022-10-14T01:41:51.731Z,15.20
2022-10-14T01:44:22.687Z,15.20
2022-10-14T01:46:54.884Z,15.20
2022-10-14T01:49:28.075Z,15.20
2022-10-14T01:52:00.857Z,15.20
2022-10-14T01:54:33.919Z,15.20
2022-10-14T01:57:06.595Z,15.20
2022-10-14T01:59:36.659Z,15.20
2022-10-14T02:02:06.328Z,15.10
2022-10-14T02:04:34.829Z,15.10
2022-10-14T02:07:08.109Z,15.20
2022-10-14T02:09:44.287Z,15.20
2022-10-14T02:12:23.529Z,15.10
2022-10-14T02:15:02.220Z,15.10
2022-10-14T02:17:37.925Z,15.10
2022-10-14T02:20:17.347Z,15.10
2022-10-14T02:22:51.273Z,15.10
2022-10-14T02:25:22.926Z,15.10
2022-10-14T02:27:51.846Z,15.20
2022-10-14T02:30:20.684Z,15.10
2022-10-14T02:33:00.317Z,15.10
2022-10-14T02:35:31.600Z,15.20
2022-10-14T02:38:01.025Z,15.10
2022-10-14T02:40:36.940Z,15.10
2022-10-14T02:43:08.004Z,15.10
2022-10-14T02:45:36.641Z,15.20
2022-10-14T02:48:06.736Z,15.20
2022-10-14T02:50:35.786Z,15.20
2022-10-14T02:53:04.018Z,15.20
2022-10-14T02:55:32.208Z,15.20
2022-10-14T02:58:01.234Z,15.10
2022-10-14T03:00:29.566Z,15.10
2022-10-14T03:02:58.174Z,15.10
2022-10-14T03:05:29.979Z,15.20
2022-10-14T03:07:58.286Z,15.20
2022-10-14T03:10:28.832Z,15.20
2022-10-14T03:12:57.134Z,15.10
2022-10-14T03:15:31.157Z,15.10
2022-10-14T03:18:00.770Z,15.10
2022-10-14T03:20:39.022Z,15.10
2022-10-14T03:23:09.773Z,15.10
2022-10-14T03:25:39.370Z,15.10
2022-10-14T03:28:14.394Z,15.10
2022-10-14T03:30:50.086Z,15.20
2022-10-14T03:33:33.681Z,15.20
2022-10-14T03:36:13.609Z,15.20
2022-10-14T03:38:46.943Z,15.10
2022-10-14T03:41:33.594Z,15.10
2022-10-14T03:44:02.138Z,15.10
2022-10-14T03:46:31.148Z,15.10
2022-10-14T03:48:59.681Z,15.10
2022-10-14T03:51:30.045Z,15.20
2022-10-14T03:54:10.204Z,15.20
2022-10-14T03:56:39.405Z,15.20
2022-10-14T03:59:08.102Z,15.20
2022-10-14T04:01:38.142Z,15.10
2022-10-14T04:04:17.451Z,15.10
2022-10-14T04:06:48.574Z,15.20
2022-10-14T04:09:19.543Z,15.10
2022-10-14T04:11:48.463Z,15.20
2022-10-14T04:14:35.475Z,15.10
2022-10-14T04:17:03.710Z,14.30
2022-10-14T04:22:04.822Z,15.10
2022-10-14T04:24:34.946Z,15.10
2022-10-14T04:27:03.662Z,15.30
2022-10-14T04:29:52.959Z,15.10
2022-10-14T04:32:28.672Z,15.10
2022-10-14T04:34:57.596Z,15.10
2022-10-14T04:37:31.484Z,15.10
2022-10-14T04:40:13.045Z,15.10
2022-10-14T04:42:46.235Z,15.10
2022-10-14T04:45:22.186Z,15.20
2022-10-14T04:47:57.001Z,15.10
2022-10-14T04:50:26.348Z,15.10
2022-10-14T04:53:17.519Z,15.20
2022-10-14T04:55:58.469Z,15.20
2022-10-14T04:58:27.314Z,15.20
2022-10-14T05:00:56.150Z,15.20
2022-10-14T05:03:29.401Z,15.20
2022-10-14T05:05:58.841Z,15.20
2022-10-14T05:08:28.845Z,15.20
2022-10-14T05:11:00.227Z,15.20
2022-10-14T05:13:43.665Z,15.20
2022-10-14T05:16:12.320Z,15.30
2022-10-14T05:18:41.084Z,15.30
2022-10-14T05:21:11.822Z,15.30
2022-10-14T05:23:52.529Z,15.30
2022-10-14T05:26:21.306Z,15.30
2022-10-14T05:28:53.014Z,15.30
2022-10-14T05:31:22.614Z,15.30
2022-10-14T05:34:02.577Z,15.30
2022-10-14T05:36:30.904Z,15.30
2022-10-14T05:39:00.767Z,15.30
2022-10-14T05:41:35.246Z,15.30
2022-10-14T05:44:04.533Z,15.30
2022-10-14T05:46:33.069Z,15.30
2022-10-14T05:49:06.110Z,15.30
2022-10-14T05:51:38.607Z,15.40
2022-10-14T05:54:18.796Z,15.40
2022-10-14T05:56:55.544Z,15.30
2022-10-14T05:59:25.589Z,15.40
2022-10-14T06:01:53.849Z,15.40
2022-10-14T06:04:22.575Z,15.40
2022-10-14T06:06:50.897Z,15.40
2022-10-14T06:09:20.719Z,15.30
2022-10-14T06:11:49.050Z,15.30
2022-10-14T06:14:17.295Z,15.40
2022-10-14T06:16:50.326Z,15.40
2022-10-14T06:19:18.672Z,15.40
2022-10-14T06:21:46.977Z,15.40
2022-10-14T06:24:15.385Z,15.40
2022-10-14T06:26:45.081Z,15.40
2022-10-14T06:29:13.404Z,15.40
2022-10-14T06:31:41.946Z,15.40
2022-10-14T06:34:10.163Z,15.40
2022-10-14T06:36:38.686Z,15.40
2022-10-14T06:39:06.898Z,15.40
2022-10-14T06:41:35.155Z,15.40
2022-10-14T06:44:04.762Z,15.40
2022-10-14T06:46:33.132Z,15.40
2022-10-14T06:49:01.309Z,15.40
2022-10-14T06:51:29.688Z,15.40
2022-10-14T06:53:57.926Z,15.40
2022-10-14T06:56:26.236Z,15.40
2022-10-14T06:58:55.333Z,15.40
2022-10-14T07:01:25.031Z,15.40
2022-10-14T07:03:55.920Z,15.40
2022-10-14T07:06:25.525Z,15.40
2022-10-14T07:08:54.094Z,15.40
2022-10-14T07:11:22.314Z,15.40
2022-10-14T07:13:50.587Z,15.40
2022-10-14T07:16:18.864Z,15.40
2022-10-14T07:18:49.347Z,15.40
2022-10-14T07:21:17.628Z,15.40
2022-10-14T07:23:45.797Z,15.40
2022-10-14T07:26:14.263Z,15.40
2022-10-14T07:28:42.603Z,15.40
2022-10-14T07:31:13.112Z,15.40
2022-10-14T07:33:42.303Z,15.40
2022-10-14T07:36:16.079Z,15.40
2022-10-14T07:38:48.230Z,15.40
2022-10-14T07:41:19.008Z,15.50
2022-10-14T07:43:49.086Z,15.40
2022-10-14T07:46:28.425Z,15.60
2022-10-14T07:48:57.779Z,15.40
2022-10-14T07:51:28.069Z,15.50
2022-10-14T07:53:58.175Z,15.50
2022-10-14T07:56:27.254Z,15.50
2022-10-14T07:58:57.611Z,15.50
2022-10-14T08:01:25.909Z,15.50
2022-10-14T08:03:54.291Z,15.50
2022-10-14T08:06:23.019Z,15.50
2022-10-14T08:08:52.771Z,15.50
2022-10-14T08:11:23.914Z,15.50
2022-10-14T08:13:52.906Z,15.50
2022-10-14T08:16:23.363Z,15.50
2022-10-14T08:18:52.856Z,15.50
2022-10-14T08:21:22.120Z,15.50
2022-10-14T08:23:50.586Z,15.50
2022-10-14T08:26:28.071Z,15.50
2022-10-14T08:28:56.371Z,15.50
2022-10-14T08:31:24.844Z,15.50
2022-10-14T08:33:53.116Z,15.50
2022-10-14T08:36:22.884Z,15.50
2022-10-14T08:38:53.899Z,15.50
2022-10-14T08:41:57.249Z,15.50
2022-10-14T08:44:28.310Z,15.50
2022-10-14T08:46:59.375Z,15.50
2022-10-14T08:49:31.630Z,15.50
2022-10-14T08:52:03.170Z,15.50
2022-10-14T08:54:37.880Z,15.50
2022-10-14T08:57:15.430Z,15.50
2022-10-14T08:59:44.109Z,15.50
2022-10-14T09:02:22.240Z,15.50
2022-10-14T09:04:51.007Z,15.50
2022-10-14T09:07:20.977Z,15.50
2022-10-14T09:09:52.458Z,15.50
2022-10-14T09:12:28.069Z,15.50
2022-10-14T09:15:05.199Z,15.50
2022-10-14T09:17:38.663Z,15.40
2022-10-14T09:20:19.315Z,15.50
2022-10-14T09:22:57.769Z,15.50
2022-10-14T09:25:26.070Z,15.50
2022-10-14T09:27:55.795Z,15.50
2022-10-14T09:30:24.095Z,15.50
2022-10-14T09:32:54.700Z,15.50
2022-10-14T09:35:26.417Z,15.50
2022-10-14T09:37:54.553Z,15.50
2022-10-14T09:40:29.855Z,15.50
2022-10-14T09:43:02.991Z,15.50
2022-10-14T09:45:45.479Z,15.50
2022-10-14T09:48:17.115Z,15.50
2022-10-14T09:50:51.628Z,15.50
2022-10-14T09:53:28.532Z,15.50
2022-10-14T09:55:59.802Z,15.50
2022-10-14T09:58:36.740Z,15.50
2022-10-14T10:01:05.622Z,15.50
2022-10-14T10:03:36.153Z,15.50
2022-10-14T10:06:07.679Z,15.50
2022-10-14T10:08:37.453Z,15.50
2022-10-14T10:11:09.804Z,15.50
2022-10-14T10:13:44.549Z,15.50
2022-10-14T10:16:22.920Z,15.50
2022-10-14T10:18:52.667Z,15.50
2022-10-14T10:21:25.795Z,15.50
2022-10-14T10:23:59.243Z,15.50
2022-10-14T10:26:31.727Z,15.50
2022-10-14T10:29:03.675Z,15.50
2022-10-14T10:31:51.573Z,15.50
2022-10-14T10:34:47.677Z,15.50
2022-10-14T10:37:26.279Z,15.50
2022-10-14T10:40:21.363Z,15.50
2022-10-14T10:43:00.195Z,15.50
2022-10-14T10:45:41.622Z,15.50
2022-10-14T10:48:18.646Z,15.50
2022-10-14T10:50:57.798Z,15.50
2022-10-14T10:53:41.403Z,15.50
2022-10-14T10:56:20.488Z,15.50
2022-10-14T10:59:06.867Z,15.50
2022-10-14T11:01:48.398Z,15.50
2022-10-14T11:04:27.079Z,15.50
2022-10-14T11:07:26.928Z,15.50
2022-10-14T11:10:24.225Z,15.50
2022-10-14T11:13:00.977Z,15.50
2022-10-14T11:15:42.129Z,15.50
2022-10-14T11:18:20.702Z,15.40
2022-10-14T11:21:01.929Z,15.50
2022-10-14T11:23:49.069Z,15.50
2022-10-14T11:29:13.289Z,15.50
2022-10-14T11:31:51.550Z,15.50
2022-10-14T11:34:38.703Z,15.50
2022-10-14T11:37:17.301Z,15.50
2022-10-14T11:39:50.308Z,15.50
2022-10-14T11:42:28.764Z,15.50
2022-10-14T11:45:21.171Z,15.50
2022-10-14T11:48:05.435Z,15.50
2022-10-14T11:50:42.976Z,15.50
2022-10-14T11:53:15.339Z,15.50
2022-10-14T11:55:49.732Z,15.50
2022-10-14T11:58:24.398Z,15.50
2022-10-14T12:01:16.570Z,15.50
2022-10-14T12:03:58.593Z,15.50
2022-10-14T12:06:35.445Z,15.50
2022-10-14T12:09:11.084Z,15.50
2022-10-14T12:11:45.407Z,15.60
2022-10-14T12:14:20.409Z,15.60
2022-10-14T12:16:50.142Z,15.60
2022-10-14T12:19:23.526Z,15.60
2022-10-14T12:21:59.297Z,15.60
2022-10-14T12:24:33.891Z,15.60
2022-10-14T12:27:05.200Z,15.60
2022-10-14T12:29:36.280Z,15.50
2022-10-14T12:32:17.099Z,15.60
2022-10-14T12:34:46.585Z,15.60
2022-10-14T12:37:51.481Z,15.60
2022-10-14T12:40:32.219Z,15.60
2022-10-14T12:43:13.500Z,15.60
2022-10-14T12:45:51.383Z,15.60
2022-10-14T12:48:23.239Z,15.60
2022-10-14T12:50:57.317Z,15.50
2022-10-14T12:53:28.332Z,15.60
2022-10-14T12:56:00.434Z,15.50
2022-10-14T12:58:32.817Z,15.50
2022-10-14T13:01:04.394Z,15.50
2022-10-14T13:03:33.928Z,15.60
2022-10-14T13:06:32.710Z,15.60
2022-10-14T13:09:30.704Z,15.60
2022-10-14T13:12:35.866Z,15.60
2022-10-14T13:15:26.494Z,15.60
2022-10-14T13:17:55.582Z,15.60
2022-10-14T13:20:52.515Z,15.60
2022-10-14T13:23:35.407Z,15.60
2022-10-14T13:26:21.475Z,15.60
2022-10-14T13:29:00.122Z,15.60
2022-10-14T13:31:37.968Z,15.60
2022-10-14T13:34:18.501Z,15.60
2022-10-14T13:37:05.556Z,15.60
2022-10-14T13:39:35.835Z,15.60
2022-10-14T13:42:04.557Z,15.60
2022-10-14T13:44:34.101Z,15.60
2022-10-14T13:47:04.514Z,15.60
2022-10-14T13:49:37.947Z,15.60
2022-10-14T13:52:10.716Z,15.60
2022-10-14T13:54:38.912Z,15.60
2022-10-14T13:57:42.753Z,15.60
2022-10-14T14:02:55.095Z,15.60
2022-10-14T14:05:27.413Z,15.60
2022-10-14T14:11:15.036Z,15.60
2022-10-14T14:13:55.826Z,15.60
2022-10-14T14:16:34.319Z,15.60
2022-10-14T14:19:09.282Z,15.60
2022-10-14T14:21:38.805Z,15.60
2022-10-14T14:24:17.217Z,15.60
2022-10-14T14:26:55.421Z,15.60
2022-10-14T14:29:28.783Z,15.60
2022-10-14T14:32:06.749Z,15.60
2022-10-14T14:34:38.707Z,15.60
2022-10-14T14:39:59.161Z,15.60
2022-10-14T14:42:29.146Z,15.50
2022-10-14T14:45:00.853Z,15.60
2022-10-14T14:47:30.273Z,15.60
2022-10-14T14:50:25.399Z,15.60
2022-10-14T14:52:51.505Z,15.60
2022-10-14T14:55:36.762Z,15.60
2022-10-14T14:58:07.664Z,15.60
2022-10-14T15:00:35.971Z,15.60
2022-10-14T15:03:05.244Z,15.60
2022-10-14T15:05:34.877Z,15.60
2022-10-14T15:08:03.746Z,15.60
2022-10-14T15:10:32.755Z,15.60
2022-10-14T15:13:02.774Z,15.60
2022-10-14T15:15:34.895Z,15.60
2022-10-14T15:18:15.100Z,15.60
2022-10-14T15:20:45.144Z,15.60
2022-10-14T15:23:42.891Z,15.60
2022-10-14T15:26:25.179Z,15.60
2022-10-14T15:29:13.722Z,15.60
2022-10-14T15:31:43.755Z,15.60
2022-10-14T15:34:23.220Z,15.60
2022-10-14T15:36:54.209Z,15.60
2022-10-14T15:39:23.352Z,15.60
2022-10-14T15:41:51.942Z,15.60
2022-10-14T15:44:21.048Z,15.60
2022-10-14T15:47:07.021Z,15.60
2022-10-14T15:49:39.054Z,15.60
2022-10-14T15:52:08.787Z,15.60
2022-10-14T15:54:37.174Z,15.60
2022-10-14T15:57:05.814Z,15.60
2022-10-14T15:59:36.609Z,15.60
2022-10-14T16:02:06.116Z,15.60
2022-10-14T16:04:35.246Z,15.60
2022-10-14T16:07:03.549Z,15.60
2022-10-14T16:09:33.153Z,15.60
2022-10-14T16:12:01.363Z,15.60
2022-10-14T16:14:29.666Z,15.60
2022-10-14T16:16:58.828Z,15.60
2022-10-14T16:19:28.025Z,15.60
2022-10-14T16:21:56.292Z,15.60
2022-10-14T16:24:25.964Z,15.60
2022-10-14T16:26:55.895Z,15.60
2022-10-14T16:29:24.163Z,15.60
2022-10-14T16:31:54.323Z,15.60
2022-10-14T16:34:24.083Z,15.60
2022-10-14T16:36:53.624Z,15.60
2022-10-14T16:39:22.118Z,15.60
2022-10-14T16:41:50.836Z,15.60
2022-10-14T16:44:27.683Z,15.60
2022-10-14T16:47:15.222Z,15.60
2022-10-14T16:49:45.515Z,15.60
2022-10-14T16:52:13.944Z,15.60
2022-10-14T16:54:42.437Z,15.60
2022-10-14T16:57:10.863Z,15.60
2022-10-14T16:59:40.715Z,15.60
2022-10-14T17:02:11.144Z,15.70
2022-10-14T17:04:41.209Z,15.80
2022-10-14T17:07:09.486Z,16.00
2022-10-14T17:09:39.484Z,16.00
2022-10-14T17:12:14.174Z,16.00
2022-10-14T17:14:44.339Z,16.00
2022-10-14T17:17:13.190Z,16.20
2022-10-14T17:19:42.909Z,16.10
2022-10-14T17:22:11.220Z,16.20
2022-10-14T17:24:39.510Z,16.50
2022-10-14T17:27:10.811Z,16.60
2022-10-14T17:29:39.145Z,16.70
2022-10-14T17:32:08.983Z,16.70
2022-10-14T17:34:37.448Z,16.60
2022-10-14T17:39:41.290Z,16.40
2022-10-14T17:42:09.624Z,16.20
2022-10-14T17:44:42.794Z,16.10
2022-10-14T17:47:13.690Z,16.00
2022-10-14T17:49:41.906Z,16.00
2022-10-14T17:52:11.357Z,15.90
2022-10-14T17:54:39.632Z,15.90
2022-10-14T17:57:07.891Z,15.90
2022-10-14T17:59:36.107Z,15.90
2022-10-14T18:02:04.708Z,15.90
2022-10-14T18:04:34.558Z,15.90
2022-10-14T18:07:02.927Z,15.80
2022-10-14T18:09:31.161Z,15.80
2022-10-14T18:12:14.762Z,15.80
2022-10-14T18:14:43.545Z,15.80
2022-10-14T18:17:13.085Z,15.80
2022-10-14T18:19:45.065Z,15.80
2022-10-14T18:22:17.098Z,15.80
2022-10-14T18:24:45.503Z,15.80
2022-10-14T18:27:13.911Z,15.40
2022-10-14T18:29:42.402Z,15.80
2022-10-14T18:32:10.749Z,15.70
2022-10-14T18:34:39.321Z,15.70
2022-10-14T18:37:09.023Z,15.70
2022-10-14T18:39:37.581Z,15.70
2022-10-14T18:42:05.853Z,15.70
2022-10-14T18:44:35.206Z,15.70
2022-10-14T18:47:03.560Z,15.70
2022-10-14T18:49:34.535Z,15.70
2022-10-14T18:52:06.494Z,15.70
2022-10-14T18:54:36.810Z,15.70
2022-10-14T18:57:05.148Z,16.00
2022-10-14T18:59:34.074Z,15.70
2022-10-14T19:02:02.387Z,15.70
2022-10-14T19:04:30.854Z,15.70
2022-10-14T19:06:59.440Z,15.70
2022-10-14T19:09:29.749Z,15.70
2022-10-14T19:12:00.046Z,15.70
2022-10-14T19:14:31.753Z,15.80
2022-10-14T19:17:00.097Z,15.90
2022-10-14T19:19:28.474Z,15.90
2022-10-14T19:21:59.613Z,16.00
2022-10-14T19:24:28.277Z,16.00
2022-10-14T19:26:57.063Z,16.00
2022-10-14T19:29:26.692Z,16.10
2022-10-14T19:31:54.949Z,16.10
2022-10-14T19:34:26.873Z,16.10
2022-10-14T19:36:55.577Z,16.20
2022-10-14T19:39:23.887Z,16.40
2022-10-14T19:41:52.505Z,16.50
2022-10-14T19:44:20.804Z,16.40
2022-10-14T19:46:50.708Z,16.30
2022-10-14T19:49:19.111Z,16.20
2022-10-14T19:51:47.337Z,16.20
2022-10-14T19:54:15.884Z,16.20
2022-10-14T19:56:44.194Z,16.20
2022-10-14T19:59:13.555Z,16.20
2022-10-14T20:01:42.053Z,16.20
2022-10-14T20:04:12.281Z,16.20
2022-10-14T20:06:42.008Z,16.40
2022-10-14T20:09:13.561Z,16.60
2022-10-14T20:11:42.088Z,16.70
2022-10-14T20:14:10.289Z,16.70
2022-10-14T20:16:38.581Z,16.60
2022-10-14T20:19:07.055Z,16.30
2022-10-14T20:21:36.757Z,16.20
2022-10-14T20:24:05.636Z,16.10
2022-10-14T20:26:34.404Z,16.10
2022-10-14T20:29:02.801Z,16.00
2022-10-14T20:31:31.219Z,16.00
2022-10-14T20:33:59.664Z,16.00
2022-10-14T20:36:27.974Z,15.90
2022-10-14T20:38:57.980Z,15.90
2022-10-14T20:41:28.576Z,15.90
2022-10-14T20:43:57.337Z,15.90
2022-10-14T20:46:25.718Z,15.90
2022-10-14T20:48:57.846Z,15.90
2022-10-14T20:51:26.525Z,15.80
2022-10-14T20:54:02.010Z,15.80
2022-10-14T20:56:33.406Z,15.80
2022-10-14T20:59:03.426Z,16.00
2022-10-14T21:01:32.615Z,15.80
2022-10-14T21:04:02.951Z,15.80
2022-10-14T21:06:32.025Z,15.80
2022-10-14T21:09:01.807Z,15.70
2022-10-14T21:11:30.114Z,15.70
2022-10-14T21:14:00.026Z,15.70
2022-10-14T21:16:30.209Z,15.70
2022-10-14T21:18:59.699Z,15.70
2022-10-14T21:21:29.998Z,15.70
2022-10-14T21:23:59.648Z,15.70
2022-10-14T21:26:31.089Z,15.70
2022-10-14T21:29:01.054Z,15.70
2022-10-14T21:31:29.325Z,15.70
2022-10-14T21:34:04.172Z,15.70
2022-10-14T21:36:34.339Z,15.70
2022-10-14T21:39:05.662Z,15.70
2022-10-14T21:41:35.831Z,15.70
2022-10-14T21:44:04.228Z,15.70
2022-10-14T21:46:32.762Z,15.70
2022-10-14T21:49:01.174Z,15.70
2022-10-14T21:51:31.312Z,15.70
2022-10-14T21:53:59.861Z,15.70
2022-10-14T21:56:28.555Z,15.70
2022-10-14T21:58:58.452Z,15.70
2022-10-14T22:01:28.456Z,15.70
2022-10-14T22:03:58.493Z,15.70
2022-10-14T22:06:27.214Z,15.70
2022-10-14T22:08:57.224Z,15.70
2022-10-14T22:11:27.728Z,15.70
2022-10-14T22:13:59.297Z,15.70
2022-10-14T22:16:29.153Z,15.70
2022-10-14T22:19:00.193Z,15.70
2022-10-14T22:21:30.045Z,15.70
2022-10-14T22:23:58.864Z,15.70
2022-10-14T22:26:28.741Z,15.70
2022-10-14T22:29:03.201Z,15.70
2022-10-14T22:31:33.921Z,15.70
2022-10-14T22:34:04.893Z,15.70
2022-10-14T22:36:34.931Z,15.70
2022-10-14T22:39:05.490Z,15.70
2022-10-14T22:41:35.954Z,15.70
2022-10-14T22:44:07.019Z,15.70
2022-10-14T22:46:37.526Z,15.70
2022-10-14T22:49:06.128Z,15.60
2022-10-14T22:51:36.549Z,15.10
2022-10-14T22:54:05.454Z,15.60
2022-10-14T22:56:34.254Z,15.60
2022-10-14T22:59:03.778Z,15.70
2022-10-14T23:01:34.068Z,15.60
2022-10-14T23:04:03.149Z,15.60
2022-10-14T23:06:31.800Z,15.60
2022-10-14T23:09:01.030Z,15.60
2022-10-14T23:11:31.360Z,15.70
2022-10-14T23:14:02.838Z,15.80
2022-10-14T23:16:36.087Z,15.90
2022-10-14T23:19:04.844Z,16.00
2022-10-14T23:21:34.823Z,16.10
2022-10-14T23:24:05.574Z,16.10
2022-10-14T23:26:35.565Z,16.20
2022-10-14T23:29:06.099Z,16.20
2022-10-14T23:31:37.545Z,16.20
2022-10-14T23:34:08.823Z,16.20
2022-10-14T23:36:37.970Z,16.20
2022-10-14T23:39:06.844Z,16.00
2022-10-14T23:41:35.599Z,15.90
2022-10-14T23:44:03.820Z,15.80
2022-10-14T23:46:32.210Z,15.80
2022-10-14T23:49:07.379Z,15.80
2022-10-14T23:51:42.653Z,15.70
2022-10-14T23:54:11.027Z,15.70
2022-10-14T23:56:39.231Z,15.70
2022-10-14T23:59:07.489Z,15.70
